createdAt,value
2023-05-07T00:00:56.987Z,100802.34
2023-05-07T00:03:23.594Z,100808.53
2023-05-07T00:05:50.092Z,100812.88
2023-05-07T00:08:16.561Z,100809.38
2023-05-07T00:10:43.200Z,100799.97
2023-05-07T00:13:09.765Z,100801.66
2023-05-07T00:15:36.244Z,100799.75
2023-05-07T00:18:02.955Z,100790.31
2023-05-07T00:20:29.413Z,100793.03
2023-05-07T00:22:55.951Z,100799.22
2023-05-07T00:25:22.501Z,100798.25
2023-05-07T00:27:49.059Z,100795.59
2023-05-07T00:30:15.794Z,100792.88
2023-05-07T00:32:42.378Z,100787.50
2023-05-07T00:35:09.482Z,100791.03
2023-05-07T00:37:36.040Z,100785.78
2023-05-07T00:40:05.501Z,100792.03
2023-05-07T00:42:33.350Z,100800.19
2023-05-07T00:45:00.283Z,100788.94
2023-05-07T00:47:26.901Z,100791.63
2023-05-07T00:49:53.671Z,100787.22
2023-05-07T00:52:22.672Z,100778.34
2023-05-07T00:54:49.312Z,100786.19
2023-05-07T00:57:16.368Z,100776.50
2023-05-07T00:59:43.094Z,100781.75
2023-05-07T01:02:09.637Z,100784.38
2023-05-07T01:04:36.328Z,100787.88
2023-05-07T01:07:03.558Z,100790.88
2023-05-07T01:09:30.315Z,100788.28
2023-05-07T01:11:58.529Z,100791.88
2023-05-07T01:14:26.611Z,100785.75
2023-05-07T01:16:54.274Z,100787.41
2023-05-07T01:19:21.032Z,100783.00
2023-05-07T01:21:49.386Z,100783.84
2023-05-07T01:24:16.743Z,100782.16
2023-05-07T01:26:44.442Z,100787.84
2023-05-07T01:29:11.264Z,100778.28
2023-05-07T01:31:38.526Z,100779.22
2023-05-07T01:34:07.822Z,100776.56
2023-05-07T01:36:35.467Z,100770.38
2023-05-07T01:39:03.191Z,100771.22
2023-05-07T01:41:29.702Z,100776.31
2023-05-07T01:43:58.475Z,100768.66
2023-05-07T01:46:27.182Z,100772.34
2023-05-07T01:48:54.820Z,100779.44
2023-05-07T01:51:23.210Z,100771.47
2023-05-07T01:53:51.773Z,100777.59
2023-05-07T01:56:19.010Z,100768.72
2023-05-07T01:58:48.863Z,100765.28
2023-05-07T02:01:15.561Z,100770.66
2023-05-07T02:03:42.132Z,100768.16
2023-05-07T02:06:09.458Z,100771.00
2023-05-07T02:08:36.064Z,100773.97
2023-05-07T02:11:02.966Z,100769.63
2023-05-07T02:13:31.307Z,100770.59
2023-05-07T02:15:58.570Z,100768.03
2023-05-07T02:18:25.344Z,100768.03
2023-05-07T02:20:51.783Z,100767.94
2023-05-07T02:23:18.229Z,100769.66
2023-05-07T02:25:44.741Z,100766.97
2023-05-07T02:28:11.153Z,100777.50
2023-05-07T02:30:38.382Z,100773.97
2023-05-07T02:33:04.978Z,100769.63
2023-05-07T02:35:31.445Z,100761.66
2023-05-07T02:37:57.900Z,100758.16
2023-05-07T02:40:24.427Z,100767.78
2023-05-07T02:42:50.844Z,100769.50
2023-05-07T02:45:17.437Z,100764.25
2023-05-07T02:47:43.921Z,100771.28
2023-05-07T02:50:10.923Z,100760.91
2023-05-07T02:52:37.544Z,100763.63
2023-05-07T02:55:04.308Z,100763.00
2023-05-07T02:57:30.892Z,100761.25
2023-05-07T02:59:59.003Z,100769.28
2023-05-07T03:02:25.838Z,100779.16
2023-05-07T03:04:52.789Z,100771.50
2023-05-07T03:07:19.381Z,100769.84
2023-05-07T03:09:46.289Z,100768.91
2023-05-07T03:12:12.706Z,100770.66
2023-05-07T03:14:39.155Z,100773.22
2023-05-07T03:17:05.619Z,100773.16
2023-05-07T03:19:32.009Z,100773.22
2023-05-07T03:21:58.547Z,100769.66
2023-05-07T03:24:24.988Z,100761.78
2023-05-07T03:26:51.396Z,100760.00
2023-05-07T03:29:17.822Z,100753.09
2023-05-07T03:31:44.751Z,100750.56
2023-05-07T03:34:11.193Z,100748.91
2023-05-07T03:36:37.826Z,100755.25
2023-05-07T03:39:04.285Z,100752.78
2023-05-07T03:41:31.025Z,100756.53
2023-05-07T03:43:57.445Z,100760.13
2023-05-07T03:46:23.905Z,100756.59
2023-05-07T03:48:50.315Z,100762.59
2023-05-07T03:51:16.877Z,100764.31
2023-05-07T03:53:43.338Z,100763.53
2023-05-07T03:56:09.806Z,100758.31
2023-05-07T03:58:36.296Z,100766.09
2023-05-07T04:01:03.059Z,100778.38
2023-05-07T04:03:30.678Z,100775.63
2023-05-07T04:05:57.256Z,100773.81
2023-05-07T04:08:23.783Z,100781.72
2023-05-07T04:10:58.952Z,100773.72
2023-05-07T04:13:26.506Z,100777.22
2023-05-07T04:15:53.975Z,100782.41
2023-05-07T04:18:21.083Z,100771.81
2023-05-07T04:20:48.214Z,100776.19
2023-05-07T04:23:14.732Z,100781.31
2023-05-07T04:25:41.312Z,100776.06
2023-05-07T04:28:07.835Z,100785.94
2023-05-07T04:30:34.311Z,100785.88
2023-05-07T04:33:01.032Z,100788.78
2023-05-07T04:35:27.528Z,100793.25
2023-05-07T04:37:53.961Z,100782.88
2023-05-07T04:40:21.022Z,100781.22
2023-05-07T04:42:47.487Z,100784.59
2023-05-07T04:45:13.985Z,100777.63
2023-05-07T04:47:40.682Z,100775.81
2023-05-07T04:50:10.689Z,100770.44
2023-05-07T04:52:37.580Z,100775.63
2023-05-07T04:55:04.181Z,100773.72
2023-05-07T04:57:30.625Z,100773.91
2023-05-07T04:59:57.075Z,100774.72
2023-05-07T05:02:23.514Z,100773.88
2023-05-07T05:04:49.917Z,100776.44
2023-05-07T05:07:16.298Z,100781.59
2023-05-07T05:09:42.706Z,100771.81
2023-05-07T05:12:10.313Z,100778.75
2023-05-07T05:14:36.974Z,100781.34
2023-05-07T05:17:03.420Z,100781.28
2023-05-07T05:19:29.819Z,100776.72
2023-05-07T05:21:56.329Z,100777.50
2023-05-07T05:24:22.767Z,100780.88
2023-05-07T05:26:49.249Z,100785.19
2023-05-07T05:29:15.813Z,100787.91
2023-05-07T05:31:42.827Z,100780.84
2023-05-07T05:34:09.345Z,100784.19
2023-05-07T05:36:35.772Z,100783.16
2023-05-07T05:39:02.190Z,100792.56
2023-05-07T05:41:28.681Z,100798.56
2023-05-07T05:43:55.216Z,100793.97
2023-05-07T05:46:21.645Z,100794.75
2023-05-07T05:48:48.144Z,100798.09
2023-05-07T05:51:14.663Z,100801.44
2023-05-07T05:53:41.152Z,100806.63
2023-05-07T05:56:07.853Z,100809.03
2023-05-07T05:58:34.313Z,100794.88
2023-05-07T06:01:00.991Z,100810.63
2023-05-07T06:03:27.512Z,100815.75
2023-05-07T06:05:53.966Z,100807.69
2023-05-07T06:08:20.791Z,100805.78
2023-05-07T06:10:47.349Z,100810.03
2023-05-07T06:13:13.974Z,100814.25
2023-05-07T06:15:40.513Z,100812.31
2023-05-07T06:18:06.999Z,100807.78
2023-05-07T06:20:33.563Z,100813.72
2023-05-07T06:22:59.980Z,100810.91
2023-05-07T06:25:26.412Z,100813.47
2023-05-07T06:27:52.867Z,100809.78
2023-05-07T06:30:19.402Z,100815.00
2023-05-07T06:32:45.925Z,100820.19
2023-05-07T06:35:12.357Z,100819.22
2023-05-07T06:37:40.570Z,100816.47
2023-05-07T06:40:08.435Z,100828.63
2023-05-07T06:42:35.398Z,100824.97
2023-05-07T06:45:01.988Z,100825.75
2023-05-07T06:47:28.393Z,100832.63
2023-05-07T06:49:55.331Z,100829.81
2023-05-07T06:52:21.848Z,100829.72
2023-05-07T06:54:48.440Z,100832.22
2023-05-07T06:57:14.953Z,100834.78
2023-05-07T06:59:41.461Z,100836.56
2023-05-07T07:02:07.992Z,100825.09
2023-05-07T07:04:34.437Z,100825.81
2023-05-07T07:07:00.904Z,100830.13
2023-05-07T07:09:27.451Z,100831.69
2023-05-07T07:11:53.864Z,100821.00
2023-05-07T07:14:21.215Z,100834.06
2023-05-07T07:16:47.893Z,100840.91
2023-05-07T07:19:16.223Z,100835.50
2023-05-07T07:21:43.218Z,100833.56
2023-05-07T07:24:09.690Z,100836.88
2023-05-07T07:26:36.160Z,100832.28
2023-05-07T07:29:02.597Z,100839.34
2023-05-07T07:31:29.070Z,100834.78
2023-05-07T07:33:55.558Z,100839.09
2023-05-07T07:36:23.498Z,100845.97
2023-05-07T07:38:50.327Z,100849.34
2023-05-07T07:41:16.801Z,100841.41
2023-05-07T07:43:43.230Z,100848.41
2023-05-07T07:46:09.689Z,100842.84
2023-05-07T07:48:36.429Z,100838.22
2023-05-07T07:51:02.859Z,100839.06
2023-05-07T07:53:29.348Z,100847.78
2023-05-07T07:55:59.387Z,100846.75
2023-05-07T07:58:26.231Z,100845.59
2023-05-07T08:00:52.690Z,100846.56
2023-05-07T08:03:20.763Z,100851.00
2023-05-07T08:05:47.427Z,100853.47
2023-05-07T08:08:13.978Z,100855.91
2023-05-07T08:10:40.497Z,100860.25
2023-05-07T08:13:07.123Z,100859.31
2023-05-07T08:15:33.709Z,100861.09
2023-05-07T08:18:01.270Z,100854.66
2023-05-07T08:20:28.037Z,100858.88
2023-05-07T08:22:54.525Z,100852.59
2023-05-07T08:25:20.985Z,100862.09
2023-05-07T08:27:47.449Z,100858.28
2023-05-07T08:30:14.577Z,100855.25
2023-05-07T08:32:41.094Z,100858.31
2023-05-07T08:35:07.968Z,100860.66
2023-05-07T08:37:34.429Z,100859.63
2023-05-07T08:40:01.196Z,100860.91
2023-05-07T08:42:30.328Z,100865.88
2023-05-07T08:44:58.623Z,100858.94
2023-05-07T08:47:30.002Z,100861.28
2023-05-07T08:49:56.537Z,100860.19
2023-05-07T08:52:23.100Z,100856.28
2023-05-07T08:54:49.562Z,100854.00
2023-05-07T08:57:16.047Z,100864.31
2023-05-07T09:02:11.482Z,100866.59
2023-05-07T09:04:38.414Z,100870.63
2023-05-07T09:07:06.470Z,100867.78
2023-05-07T09:09:36.009Z,100868.47
2023-05-07T09:12:03.207Z,100867.56
2023-05-07T09:14:29.652Z,100851.66
2023-05-07T09:16:56.057Z,100852.47
2023-05-07T09:19:27.180Z,100856.94
2023-05-07T09:22:05.006Z,100857.09
2023-05-07T09:24:35.904Z,100861.75
2023-05-07T09:27:03.313Z,100861.53
2023-05-07T09:29:31.063Z,100860.06
2023-05-07T09:31:57.599Z,100859.91
2023-05-07T09:34:24.244Z,100862.81
2023-05-07T09:36:50.789Z,100870.97
2023-05-07T09:39:17.330Z,100866.44
2023-05-07T09:41:55.447Z,100867.88
2023-05-07T09:44:22.505Z,100864.94
2023-05-07T09:46:55.835Z,100866.38
2023-05-07T09:49:24.301Z,100865.81
2023-05-07T09:51:52.458Z,100859.38
2023-05-07T09:54:19.806Z,100861.50
2023-05-07T09:56:47.244Z,100867.28
2023-05-07T09:59:15.554Z,100854.25
2023-05-07T10:01:44.026Z,100855.81
2023-05-07T10:04:11.664Z,100854.78
2023-05-07T10:06:39.063Z,100844.31
2023-05-07T10:09:06.681Z,100847.84
2023-05-07T10:11:36.905Z,100851.28
2023-05-07T10:14:06.520Z,100850.50
2023-05-07T10:16:37.220Z,100852.22
2023-05-07T10:19:05.528Z,100856.34
2023-05-07T10:21:52.287Z,100853.69
2023-05-07T10:24:24.954Z,100850.94
2023-05-07T10:26:53.416Z,100849.09
2023-05-07T10:29:30.892Z,100846.56
2023-05-07T10:32:13.841Z,100856.09
2023-05-07T10:34:44.173Z,100847.97
2023-05-07T10:37:12.369Z,100846.34
2023-05-07T10:39:39.102Z,100855.00
2023-05-07T10:42:12.758Z,100852.19
2023-05-07T10:44:39.403Z,100844.31
2023-05-07T10:47:11.012Z,100839.16
2023-05-07T10:49:46.501Z,100840.34
2023-05-07T10:52:27.594Z,100838.66
2023-05-07T10:55:20.929Z,100835.25
2023-05-07T10:57:47.414Z,100841.41
2023-05-07T11:00:38.491Z,100830.59
2023-05-07T11:03:07.720Z,100833.44
2023-05-07T11:05:37.585Z,100843.56
2023-05-07T11:08:06.510Z,100842.75
2023-05-07T11:10:56.345Z,100830.59
2023-05-07T11:13:42.748Z,100833.78
2023-05-07T11:16:25.988Z,100829.31
2023-05-07T11:18:55.010Z,100840.28
2023-05-07T11:21:36.209Z,100826.16
2023-05-07T11:24:04.630Z,100831.31
2023-05-07T11:26:43.483Z,100832.44
2023-05-07T11:29:20.783Z,100829.38
2023-05-07T11:31:55.887Z,100834.44
2023-05-07T11:34:24.830Z,100831.25
2023-05-07T11:36:51.605Z,100830.06
2023-05-07T11:39:33.677Z,100831.88
2023-05-07T11:42:01.372Z,100830.47
2023-05-07T11:44:44.720Z,100830.53
2023-05-07T11:47:12.155Z,100819.78
2023-05-07T11:49:38.692Z,100833.09
2023-05-07T11:52:06.528Z,100837.94
2023-05-07T11:54:38.035Z,100836.41
2023-05-07T11:57:04.699Z,100837.34
2023-05-07T11:59:31.146Z,100832.13
2023-05-07T12:01:58.870Z,100840.59
2023-05-07T12:04:25.448Z,100836.66
2023-05-07T12:06:56.694Z,100834.34
2023-05-07T12:09:23.401Z,100841.94
2023-05-07T12:11:50.115Z,100834.16
2023-05-07T12:14:19.341Z,100838.13
2023-05-07T12:16:46.466Z,100844.56
2023-05-07T12:19:15.752Z,100849.91
2023-05-07T12:21:42.828Z,100840.31
2023-05-07T12:24:09.421Z,100850.31
2023-05-07T12:26:40.032Z,100851.34
2023-05-07T12:29:06.632Z,100846.56
2023-05-07T12:31:33.359Z,100848.41
2023-05-07T12:33:59.990Z,100852.03
2023-05-07T12:36:26.880Z,100849.69
2023-05-07T12:38:55.847Z,100854.06
2023-05-07T12:41:26.711Z,100850.13
2023-05-07T12:43:57.718Z,100852.47
2023-05-07T12:46:24.589Z,100852.28
2023-05-07T12:48:51.149Z,100848.75
2023-05-07T12:51:17.744Z,100844.47
2023-05-07T12:53:44.583Z,100848.84
2023-05-07T12:56:11.214Z,100850.66
2023-05-07T12:58:37.748Z,100849.97
2023-05-07T13:01:10.715Z,100849.97
2023-05-07T13:03:39.368Z,100850.31
2023-05-07T13:06:10.942Z,100849.13
2023-05-07T13:08:41.359Z,100845.19
2023-05-07T13:11:09.150Z,100851.59
2023-05-07T13:13:36.656Z,100848.50
2023-05-07T13:16:04.341Z,100855.13
2023-05-07T13:18:32.562Z,100847.72
2023-05-07T13:20:59.643Z,100861.28
2023-05-07T13:23:26.104Z,100866.94
2023-05-07T13:25:54.833Z,100870.75
2023-05-07T13:28:21.507Z,100874.28
2023-05-07T13:30:48.375Z,100874.47
2023-05-07T13:33:15.092Z,100881.66
2023-05-07T13:35:41.632Z,100884.72
2023-05-07T13:38:08.237Z,100911.66
2023-05-07T13:40:34.789Z,100920.91
2023-05-07T13:43:03.052Z,100923.72
2023-05-07T13:45:32.904Z,100926.38
2023-05-07T13:47:59.468Z,100927.53
2023-05-07T13:50:27.917Z,100928.38
2023-05-07T13:52:54.480Z,100920.59
2023-05-07T13:55:25.775Z,100916.41
2023-05-07T13:57:57.906Z,100900.59
2023-05-07T14:00:25.872Z,100894.72
2023-05-07T14:02:52.470Z,100899.91
2023-05-07T14:05:19.414Z,100891.19
2023-05-07T14:07:46.006Z,100894.13
2023-05-07T14:10:12.790Z,100894.84
2023-05-07T14:12:39.852Z,100903.50
2023-05-07T14:15:06.731Z,100916.09
2023-05-07T14:17:33.168Z,100916.34
2023-05-07T14:19:59.645Z,100928.53
2023-05-07T14:22:26.137Z,100932.66
2023-05-07T14:25:05.414Z,100940.44
2023-05-07T14:27:33.406Z,100939.50
2023-05-07T14:29:59.893Z,100939.38
2023-05-07T14:32:26.357Z,100941.09
2023-05-07T14:34:52.869Z,100942.84
2023-05-07T14:37:20.806Z,100941.03
2023-05-07T14:39:49.720Z,100933.53
2023-05-07T14:42:16.578Z,100929.47
2023-05-07T14:44:43.056Z,100936.59
2023-05-07T14:47:09.780Z,100937.53
2023-05-07T14:49:36.618Z,100935.88
2023-05-07T14:52:03.242Z,100942.97
2023-05-07T14:54:29.747Z,100932.22
2023-05-07T14:56:56.857Z,100923.44
2023-05-07T14:59:25.840Z,100919.22
2023-05-07T15:01:52.556Z,100924.38
2023-05-07T15:04:19.328Z,100919.28
2023-05-07T15:06:46.243Z,100920.41
2023-05-07T15:09:12.971Z,100927.03
2023-05-07T15:11:39.446Z,100928.84
2023-05-07T15:14:05.882Z,100921.72
2023-05-07T15:16:33.681Z,100923.38
2023-05-07T15:19:00.147Z,100919.94
2023-05-07T15:21:27.721Z,100918.88
2023-05-07T15:23:54.434Z,100918.22
2023-05-07T15:26:21.494Z,100924.22
2023-05-07T15:28:48.027Z,100916.97
2023-05-07T15:31:18.202Z,100915.09
2023-05-07T15:33:45.613Z,100928.53
2023-05-07T15:36:12.129Z,100925.63
2023-05-07T15:38:38.594Z,100919.47
2023-05-07T15:41:05.099Z,100918.53
2023-05-07T15:43:31.601Z,100918.53
2023-05-07T15:45:58.266Z,100924.59
2023-05-07T15:48:25.204Z,100926.28
2023-05-07T15:50:51.715Z,100923.34
2023-05-07T15:53:18.241Z,100915.41
2023-05-07T15:55:44.697Z,100913.69
2023-05-07T15:58:11.291Z,100905.56
2023-05-07T16:00:40.775Z,100904.41
2023-05-07T16:03:08.248Z,100901.06
2023-05-07T16:05:34.902Z,100900.78
2023-05-07T16:08:01.424Z,100910.22
2023-05-07T16:10:27.998Z,100902.28
2023-05-07T16:12:55.791Z,100901.56
2023-05-07T16:15:22.405Z,100900.56
2023-05-07T16:17:49.745Z,100897.94
2023-05-07T16:20:19.739Z,100902.28
2023-05-07T16:22:46.738Z,100905.59
2023-05-07T16:25:14.758Z,100910.91
2023-05-07T16:27:41.447Z,100907.19
2023-05-07T16:30:08.805Z,100913.94
2023-05-07T16:32:36.281Z,100908.66
2023-05-07T16:35:03.563Z,100920.00
2023-05-07T16:37:30.392Z,100925.41
2023-05-07T16:39:56.828Z,100926.22
2023-05-07T16:42:23.249Z,100927.84
2023-05-07T16:44:49.994Z,100934.66
2023-05-07T16:47:16.493Z,100935.81
2023-05-07T16:49:42.960Z,100937.00
2023-05-07T16:52:09.605Z,100935.06
2023-05-07T16:54:37.195Z,100943.88
2023-05-07T16:57:03.807Z,100947.34
2023-05-07T16:59:32.369Z,100939.91
2023-05-07T17:01:59.432Z,100946.78
2023-05-07T17:04:26.292Z,100951.78
2023-05-07T17:06:53.010Z,100952.91
2023-05-07T17:09:19.470Z,100956.66
2023-05-07T17:11:45.947Z,100946.19
2023-05-07T17:14:12.456Z,100952.22
2023-05-07T17:16:39.141Z,100960.19
2023-05-07T17:19:06.075Z,100965.47
2023-05-07T17:21:32.968Z,100957.41
2023-05-07T17:23:59.637Z,100964.44
2023-05-07T17:26:26.059Z,100965.22
2023-05-07T17:28:52.525Z,100964.28
2023-05-07T17:31:19.025Z,100966.00
2023-05-07T17:33:45.599Z,100968.00
2023-05-07T17:36:12.637Z,100968.94
2023-05-07T17:38:39.156Z,100962.78
2023-05-07T17:41:06.121Z,100968.09
2023-05-07T17:43:32.653Z,100973.41
2023-05-07T17:45:59.209Z,100968.97
2023-05-07T17:48:25.694Z,100976.94
2023-05-07T17:50:52.149Z,100974.72
2023-05-07T17:53:18.679Z,100987.44
2023-05-07T17:55:45.417Z,100981.28
2023-05-07T17:58:12.351Z,100978.00
2023-05-07T18:00:39.219Z,100978.09
2023-05-07T18:03:06.092Z,100985.25
2023-05-07T18:05:36.209Z,100983.59
2023-05-07T18:08:02.812Z,100988.91
2023-05-07T18:10:29.400Z,100989.84
2023-05-07T18:12:56.194Z,100989.84
2023-05-07T18:15:22.887Z,100998.09
2023-05-07T18:17:49.592Z,100993.78
2023-05-07T18:20:16.187Z,101004.34
2023-05-07T18:22:42.708Z,101002.00
2023-05-07T18:25:09.296Z,101001.06
2023-05-07T18:27:35.782Z,101001.13
2023-05-07T18:30:02.947Z,101007.53
2023-05-07T18:32:29.548Z,101009.50
2023-05-07T18:34:56.067Z,101015.16
2023-05-07T18:37:24.684Z,101020.44
2023-05-07T18:39:52.479Z,101024.94
2023-05-07T18:42:19.055Z,101024.66
2023-05-07T18:44:45.572Z,101033.31
2023-05-07T18:47:13.765Z,101035.06
2023-05-07T18:49:40.276Z,101030.72
2023-05-07T18:52:06.804Z,101028.38
2023-05-07T18:54:33.318Z,101031.31
2023-05-07T18:56:59.859Z,101034.75
2023-05-07T18:59:26.299Z,101035.53
2023-05-07T19:01:52.906Z,101037.25
2023-05-07T19:04:20.239Z,101036.38
2023-05-07T19:06:46.766Z,101037.38
2023-05-07T19:09:13.220Z,101031.09
2023-05-07T19:11:39.679Z,101036.31
2023-05-07T19:14:06.651Z,101032.72
2023-05-07T19:16:33.397Z,101036.16
2023-05-07T19:18:59.945Z,101035.38
2023-05-07T19:21:28.451Z,101031.84
2023-05-07T19:23:57.254Z,101030.38
2023-05-07T19:26:24.311Z,101037.38
2023-05-07T19:29:01.640Z,101039.16
2023-05-07T19:31:38.472Z,101050.78
2023-05-07T19:34:05.017Z,101051.91
2023-05-07T19:36:34.248Z,101054.72
2023-05-07T19:39:00.903Z,101053.00
2023-05-07T19:41:28.998Z,101058.28
2023-05-07T19:43:55.434Z,101064.44
2023-05-07T19:48:48.393Z,101069.06
2023-05-07T19:51:14.952Z,101061.22
2023-05-07T19:53:41.503Z,101076.47
2023-05-07T19:56:10.655Z,101076.38
2023-05-07T19:58:37.788Z,101072.06
2023-05-07T20:01:06.156Z,101077.34
2023-05-07T20:03:33.874Z,101075.56
2023-05-07T20:06:00.498Z,101076.50
2023-05-07T20:08:28.147Z,101082.75
2023-05-07T20:10:57.107Z,101083.81
2023-05-07T20:13:24.356Z,101086.50
2023-05-07T20:15:50.899Z,101086.56
2023-05-07T20:18:17.437Z,101086.63
2023-05-07T20:20:45.280Z,101099.13
2023-05-07T20:23:11.835Z,101097.41
2023-05-07T20:25:41.130Z,101096.69
2023-05-07T20:28:07.617Z,101099.38
2023-05-07T20:30:34.095Z,101105.69
2023-05-07T20:33:00.831Z,101104.22
2023-05-07T20:35:27.424Z,101110.34
2023-05-07T20:37:53.901Z,101109.47
2023-05-07T20:40:20.731Z,101111.44
2023-05-07T20:42:47.307Z,101113.16
2023-05-07T20:45:13.770Z,101113.09
2023-05-07T20:47:40.588Z,101106.06
2023-05-07T20:50:07.371Z,101113.28
2023-05-07T20:52:33.785Z,101117.63
2023-05-07T20:55:00.239Z,101121.22
2023-05-07T20:57:26.714Z,101122.97
2023-05-07T20:59:53.229Z,101117.72
2023-05-07T21:02:19.771Z,101124.84
2023-05-07T21:04:46.721Z,101126.81
2023-05-07T21:07:13.232Z,101132.13
2023-05-07T21:09:39.634Z,101131.25
2023-05-07T21:12:06.328Z,101132.03
2023-05-07T21:14:32.754Z,101129.31
2023-05-07T21:17:00.338Z,101123.31
2023-05-07T21:19:27.127Z,101133.31
2023-05-07T21:21:57.645Z,101143.19
2023-05-07T21:24:24.960Z,101133.84
2023-05-07T21:26:55.540Z,101131.34
2023-05-07T21:29:22.227Z,101137.59
2023-05-07T21:31:48.953Z,101134.91
2023-05-07T21:34:15.449Z,101127.72
2023-05-07T21:36:41.876Z,101134.53
2023-05-07T21:39:08.828Z,101130.94
2023-05-07T21:41:36.429Z,101126.47
2023-05-07T21:44:03.854Z,101132.00
2023-05-07T21:46:30.386Z,101129.69
2023-05-07T21:48:56.846Z,101135.88
2023-05-07T21:51:23.323Z,101127.84
2023-05-07T21:53:49.831Z,101125.09
2023-05-07T21:56:16.296Z,101125.94
2023-05-07T21:58:42.705Z,101113.66
2023-05-07T22:01:12.379Z,101123.47
2023-05-07T22:03:39.618Z,101119.31
2023-05-07T22:06:06.779Z,101124.72
2023-05-07T22:08:33.449Z,101129.88
2023-05-07T22:10:59.914Z,101136.75
2023-05-07T22:13:26.527Z,101132.31
2023-05-07T22:15:57.317Z,101130.53
2023-05-07T22:18:24.751Z,101131.53
2023-05-07T22:20:51.900Z,101135.16
2023-05-07T22:23:18.374Z,101137.97
2023-05-07T22:25:44.802Z,101138.78
2023-05-07T22:28:14.559Z,101140.50
2023-05-07T22:30:41.017Z,101142.34
2023-05-07T22:33:07.549Z,101139.88
2023-05-07T22:35:34.113Z,101136.34
2023-05-07T22:38:00.707Z,101133.63
2023-05-07T22:40:27.417Z,101137.13
2023-05-07T22:42:53.854Z,101138.84
2023-05-07T22:45:20.315Z,101143.38
2023-05-07T22:47:46.915Z,101147.09
2023-05-07T22:50:13.679Z,101150.81
2023-05-07T22:52:40.317Z,101152.50
2023-05-07T22:55:07.529Z,101153.41
2023-05-07T22:57:34.040Z,101146.50
2023-05-07T23:00:00.885Z,101142.19
2023-05-07T23:02:29.184Z,101135.84
2023-05-07T23:04:59.272Z,101136.53
2023-05-07T23:07:25.834Z,101134.88
2023-05-07T23:09:52.237Z,101141.13
2023-05-07T23:12:18.690Z,101147.34
2023-05-07T23:14:45.838Z,101145.78
2023-05-07T23:17:12.378Z,101147.69
2023-05-07T23:19:38.871Z,101140.75
2023-05-07T23:22:05.560Z,101142.59
2023-05-07T23:24:32.035Z,101141.75
2023-05-07T23:26:58.449Z,101132.97
2023-05-07T23:29:24.911Z,101138.25
2023-05-07T23:31:51.542Z,101138.25
2023-05-07T23:34:23.700Z,101143.63
2023-05-07T23:36:51.365Z,101135.59
2023-05-07T23:39:18.405Z,101140.06
2023-05-07T23:41:44.853Z,101144.59
2023-05-07T23:44:11.431Z,101138.53
2023-05-07T23:46:37.969Z,101135.09
2023-05-07T23:49:04.516Z,101133.47
2023-05-07T23:51:31.350Z,101136.19
2023-05-07T23:53:57.961Z,101138.06
2023-05-07T23:56:24.560Z,101143.56
2023-05-07T23:58:51.083Z,101142.81
